createdAt,value
2022-11-14T00:00:36.062Z,52945.84
2022-11-14T00:01:38.837Z,52959.87
2022-11-14T00:02:41.770Z,52949.85
2022-11-14T00:03:44.603Z,52951.86
2022-11-14T00:04:47.562Z,52958.87
2022-11-14T00:05:50.440Z,52951.86
2022-11-14T00:06:53.405Z,52937.83
2022-11-14T00:07:56.095Z,52928.81
2022-11-14T00:08:58.980Z,52940.83
2022-11-14T00:10:01.758Z,52926.80
2022-11-14T00:11:04.415Z,52926.80
2022-11-14T00:12:07.388Z,52940.83
2022-11-14T00:13:10.251Z,52925.80
2022-11-14T00:14:13.020Z,52910.77
2022-11-14T00:15:16.128Z,52859.67
2022-11-14T00:16:19.073Z,52923.80
2022-11-14T00:17:22.050Z,52881.71
2022-11-14T00:18:25.030Z,52907.77
2022-11-14T00:19:27.918Z,52888.73
2022-11-14T00:20:30.787Z,52895.74
2022-11-14T00:21:33.546Z,52948.85
2022-11-14T00:22:36.629Z,52945.84
2022-11-14T00:23:39.722Z,52924.80
2022-11-14T00:24:42.597Z,52955.86
2022-11-14T00:25:45.563Z,53000.95
2022-11-14T00:26:48.469Z,52934.82
2022-11-14T00:27:51.315Z,52886.72
2022-11-14T00:28:54.086Z,52898.75
2022-11-14T00:29:56.869Z,52892.73
2022-11-14T00:30:59.733Z,52916.79
2022-11-14T00:32:02.812Z,52911.77
2022-11-14T00:33:05.787Z,52907.77
2022-11-14T00:34:08.564Z,52896.74
2022-11-14T00:35:11.336Z,52903.76
2022-11-14T00:36:14.313Z,52896.74
2022-11-14T00:37:17.198Z,52904.76
2022-11-14T00:38:20.066Z,52871.70
2022-11-14T00:39:23.171Z,52907.77
2022-11-14T00:40:26.424Z,52901.75
2022-11-14T00:41:29.310Z,52926.80
2022-11-14T00:42:32.483Z,52890.73
2022-11-14T00:43:35.466Z,52880.71
2022-11-14T00:44:38.226Z,52876.70
2022-11-14T00:45:41.204Z,52912.78
2022-11-14T00:46:43.973Z,52918.79
2022-11-14T00:47:49.618Z,52913.78
2022-11-14T00:48:52.346Z,52918.79
2022-11-14T00:49:54.954Z,52897.75
2022-11-14T00:50:57.935Z,52891.73
2022-11-14T00:52:00.916Z,52883.72
2022-11-14T00:53:03.787Z,52863.68
2022-11-14T00:54:07.065Z,52905.76
2022-11-14T00:55:10.577Z,52936.82
2022-11-14T00:56:13.633Z,52863.68
2022-11-14T00:57:16.509Z,52909.77
2022-11-14T00:58:20.616Z,52903.76
2022-11-14T00:59:23.602Z,52907.77
2022-11-14T01:00:27.641Z,52891.73
2022-11-14T01:01:30.807Z,52913.78
2022-11-14T01:02:33.852Z,52876.70
2022-11-14T01:03:36.847Z,52903.76
2022-11-14T01:04:39.404Z,52881.71
2022-11-14T01:05:42.370Z,52843.64
2022-11-14T01:06:45.149Z,52896.74
2022-11-14T01:07:48.033Z,52866.68
2022-11-14T01:08:50.971Z,52971.89
2022-11-14T01:09:53.666Z,53005.96
2022-11-14T01:10:56.445Z,52932.82
2022-11-14T01:11:59.207Z,52995.95
2022-11-14T01:13:02.187Z,52983.92
2022-11-14T01:14:05.275Z,53015.98
2022-11-14T01:15:08.689Z,53017.99
2022-11-14T01:16:11.753Z,52960.88
2022-11-14T01:17:15.229Z,52961.87
2022-11-14T01:18:18.000Z,52941.84
2022-11-14T01:19:20.771Z,52960.88
2022-11-14T01:20:23.661Z,52909.77
2022-11-14T01:21:26.723Z,52884.72
2022-11-14T01:22:30.312Z,52931.82
2022-11-14T01:23:33.190Z,52879.71
2022-11-14T01:24:35.968Z,52894.74
2022-11-14T01:25:38.528Z,52906.77
2022-11-14T01:26:41.507Z,52899.75
2022-11-14T01:27:44.488Z,52855.66
2022-11-14T01:28:47.288Z,52825.60
2022-11-14T01:29:50.347Z,52837.62
2022-11-14T01:30:53.110Z,52803.56
2022-11-14T01:31:56.193Z,52850.65
2022-11-14T01:32:59.473Z,52923.80
2022-11-14T01:34:02.342Z,52871.70
2022-11-14T01:35:05.221Z,52923.80
2022-11-14T01:36:08.100Z,52867.68
2022-11-14T01:37:11.169Z,52814.58
2022-11-14T01:38:14.670Z,52802.55
2022-11-14T01:39:17.640Z,52836.62
2022-11-14T01:40:20.929Z,52784.52
2022-11-14T01:41:24.014Z,52787.53
2022-11-14T01:42:27.620Z,52892.73
2022-11-14T01:43:30.604Z,52950.85
2022-11-14T01:44:33.343Z,52916.79
2022-11-14T01:45:36.327Z,52903.76
2022-11-14T01:46:39.094Z,52851.65
2022-11-14T01:47:42.073Z,52799.55
2022-11-14T01:48:44.948Z,52843.64
2022-11-14T01:49:47.820Z,52820.59
2022-11-14T01:50:50.704Z,52783.52
2022-11-14T01:51:53.674Z,52819.59
2022-11-14T01:52:56.762Z,52838.62
2022-11-14T01:54:00.055Z,52829.61
2022-11-14T01:55:03.011Z,52817.59
2022-11-14T01:56:06.092Z,52898.75
2022-11-14T01:57:09.068Z,52967.89
2022-11-14T01:58:12.300Z,52924.80
2022-11-14T01:59:15.138Z,52917.79
2022-11-14T02:00:18.001Z,52851.65
2022-11-14T02:01:20.715Z,52813.58
2022-11-14T02:02:23.442Z,52763.48
2022-11-14T02:03:26.424Z,52894.74
2022-11-14T02:04:29.286Z,52839.63
2022-11-14T02:05:31.963Z,52837.62
2022-11-14T02:06:34.753Z,52849.65
2022-11-14T02:07:37.523Z,52834.62
2022-11-14T02:08:40.595Z,52810.57
2022-11-14T02:09:43.560Z,52802.55
2022-11-14T02:10:46.545Z,52784.52
2022-11-14T02:11:49.307Z,52798.55
2022-11-14T02:12:52.743Z,52781.52
2022-11-14T02:13:55.881Z,52766.48
2022-11-14T02:14:58.866Z,52791.54
2022-11-14T02:16:01.632Z,52775.50
2022-11-14T02:18:09.130Z,52829.61
2022-11-14T02:19:12.101Z,52916.79
2022-11-14T02:20:15.076Z,52920.79
2022-11-14T02:21:17.952Z,52948.85
2022-11-14T02:22:20.925Z,52921.79
2022-11-14T02:23:23.598Z,52951.86
2022-11-14T02:24:26.476Z,52947.85
2022-11-14T02:25:29.663Z,52930.81
2022-11-14T02:26:36.636Z,52950.85
2022-11-14T02:27:36.631Z,52954.86
2022-11-14T02:28:39.506Z,52915.78
2022-11-14T02:29:42.594Z,52935.82
2022-11-14T02:30:45.868Z,52938.83
2022-11-14T02:31:48.740Z,52891.73
2022-11-14T02:33:55.946Z,52957.87
2022-11-14T02:34:58.610Z,52874.70
2022-11-14T02:36:01.377Z,52897.75
2022-11-14T02:37:04.038Z,52888.73
2022-11-14T02:38:07.147Z,52915.78
2022-11-14T02:39:09.994Z,52807.57
2022-11-14T02:40:12.761Z,52877.71
2022-11-14T02:41:16.050Z,52903.76
2022-11-14T02:42:18.839Z,52915.78
2022-11-14T02:43:21.727Z,52849.65
2022-11-14T02:44:24.888Z,52892.73
2022-11-14T02:45:27.959Z,52847.64
2022-11-14T02:46:31.445Z,52774.50
2022-11-14T02:47:34.220Z,52826.61
2022-11-14T02:48:37.102Z,52878.71
2022-11-14T02:49:40.291Z,52883.72
2022-11-14T02:50:43.250Z,52838.62
2022-11-14T02:51:46.645Z,52869.69
2022-11-14T02:52:49.619Z,52887.73
2022-11-14T02:53:52.495Z,52855.66
2022-11-14T02:54:55.259Z,52899.75
2022-11-14T02:56:00.390Z,52897.75
2022-11-14T02:57:03.264Z,52910.77
2022-11-14T02:58:06.050Z,52897.75
2022-11-14T02:59:09.020Z,52874.70
2022-11-14T03:00:15.183Z,52837.62
2022-11-14T03:01:21.626Z,52824.60
2022-11-14T03:02:28.804Z,52848.65
2022-11-14T03:03:33.434Z,52829.61
2022-11-14T03:04:36.713Z,52841.63
2022-11-14T03:05:39.787Z,52823.60
2022-11-14T03:06:42.981Z,52826.61
2022-11-14T03:07:46.143Z,52862.68
2022-11-14T03:08:49.335Z,52808.57
2022-11-14T03:09:52.312Z,52891.73
2022-11-14T03:10:55.289Z,52872.70
2022-11-14T03:11:58.048Z,52831.61
2022-11-14T03:13:01.656Z,52881.71
2022-11-14T03:14:04.750Z,52875.70
2022-11-14T03:15:07.798Z,52895.74
2022-11-14T03:16:10.820Z,52873.70
2022-11-14T03:17:14.275Z,52905.76
2022-11-14T03:18:17.353Z,52843.64
2022-11-14T03:19:20.955Z,52891.73
2022-11-14T03:20:23.923Z,52924.80
2022-11-14T03:21:26.587Z,52906.77
2022-11-14T03:22:29.867Z,52869.69
2022-11-14T03:24:51.970Z,52868.69
2022-11-14T03:25:55.390Z,52929.81
2022-11-14T03:26:58.469Z,52942.84
2022-11-14T03:28:01.251Z,52902.76
2022-11-14T03:29:04.320Z,52867.68
2022-11-14T03:30:07.298Z,52857.67
2022-11-14T03:31:10.180Z,52871.70
2022-11-14T03:32:12.871Z,52864.68
2022-11-14T03:33:15.930Z,52882.71
2022-11-14T03:34:18.891Z,52869.69
2022-11-14T03:35:22.701Z,52830.61
2022-11-14T03:36:25.561Z,52875.70
2022-11-14T03:37:40.021Z,52823.60
2022-11-14T03:38:42.785Z,52849.65
2022-11-14T03:39:45.982Z,52843.64
2022-11-14T03:40:48.844Z,52855.66
2022-11-14T03:41:51.717Z,52903.76
2022-11-14T03:42:54.504Z,52917.79
2022-11-14T03:43:57.768Z,52900.75
2022-11-14T03:45:00.647Z,52884.72
2022-11-14T03:46:03.733Z,52904.76
2022-11-14T03:47:06.505Z,52883.72
2022-11-14T03:48:09.991Z,52895.74
2022-11-14T03:49:13.793Z,52879.71
2022-11-14T03:50:17.301Z,52865.68
2022-11-14T03:51:20.259Z,52890.73
2022-11-14T03:52:27.942Z,52917.79
2022-11-14T03:53:30.914Z,52869.69
2022-11-14T03:54:34.319Z,52881.71
2022-11-14T03:55:37.593Z,52857.67
2022-11-14T03:56:40.466Z,52836.62
2022-11-14T03:57:43.132Z,52816.58
2022-11-14T03:58:46.848Z,52836.62
2022-11-14T03:59:49.502Z,52842.64
2022-11-14T04:00:52.737Z,52856.66
2022-11-14T04:01:55.974Z,52871.70
2022-11-14T04:02:58.939Z,52871.70
2022-11-14T04:04:01.608Z,52887.73
2022-11-14T04:05:05.210Z,52910.77
2022-11-14T04:06:08.683Z,52903.76
2022-11-14T04:07:11.648Z,52868.69
2022-11-14T04:08:14.651Z,52920.79
2022-11-14T04:09:19.053Z,52914.78
2022-11-14T04:10:24.690Z,52843.64
2022-11-14T04:11:27.779Z,52861.67
2022-11-14T04:12:40.494Z,52818.59
2022-11-14T04:13:43.762Z,52863.68
2022-11-14T04:14:47.150Z,52909.77
2022-11-14T04:15:50.265Z,52920.79
2022-11-14T04:16:53.731Z,52906.77
2022-11-14T04:17:56.357Z,52929.81
2022-11-14T04:18:59.162Z,52920.79
2022-11-14T04:20:02.160Z,52921.79
2022-11-14T04:21:06.549Z,52843.64
2022-11-14T04:22:10.146Z,52846.64
2022-11-14T04:23:13.218Z,52913.78
2022-11-14T04:24:16.712Z,52843.64
2022-11-14T04:25:20.306Z,52875.70
2022-11-14T04:26:23.583Z,52861.67
2022-11-14T04:27:26.863Z,52810.57
2022-11-14T04:28:36.041Z,52802.55
2022-11-14T04:29:39.178Z,52861.67
2022-11-14T04:30:41.947Z,52861.67
2022-11-14T04:31:45.127Z,52866.68
2022-11-14T04:32:48.524Z,52849.65
2022-11-14T04:33:51.590Z,52857.67
2022-11-14T04:34:58.151Z,52847.64
2022-11-14T04:36:01.046Z,52852.66
2022-11-14T04:37:04.011Z,52869.69
2022-11-14T04:38:10.890Z,52822.59
2022-11-14T04:39:24.902Z,52833.62
2022-11-14T04:40:32.109Z,52901.75
2022-11-14T04:41:35.184Z,52862.68
2022-11-14T04:42:37.842Z,52839.63
2022-11-14T04:43:41.431Z,52861.67
2022-11-14T04:44:44.772Z,52860.67
2022-11-14T04:47:09.305Z,52891.73
2022-11-14T04:48:15.371Z,52926.80
2022-11-14T04:49:24.973Z,52932.82
2022-11-14T04:50:27.860Z,52846.64
2022-11-14T04:51:31.143Z,52839.63
2022-11-14T04:52:34.208Z,52854.66
2022-11-14T04:53:37.722Z,52857.67
2022-11-14T04:54:40.791Z,52816.58
2022-11-14T04:55:45.200Z,52827.61
2022-11-14T04:56:54.079Z,52825.60
2022-11-14T04:57:59.462Z,52834.62
2022-11-14T04:59:02.014Z,52847.64
2022-11-14T05:00:10.936Z,52863.68
2022-11-14T05:01:13.743Z,52833.62
2022-11-14T05:02:16.885Z,52844.64
2022-11-14T05:04:42.606Z,52851.65
2022-11-14T05:05:45.398Z,52851.65
2022-11-14T05:06:48.523Z,52866.68
2022-11-14T05:07:52.770Z,52862.68
2022-11-14T05:08:55.741Z,52853.66
2022-11-14T05:09:58.622Z,52871.70
2022-11-14T05:11:01.592Z,52860.67
2022-11-14T05:12:04.671Z,52889.73
2022-11-14T05:13:07.851Z,52853.66
2022-11-14T05:14:10.833Z,52857.67
2022-11-14T05:15:14.322Z,52884.72
2022-11-14T05:16:17.404Z,52907.77
2022-11-14T05:17:21.129Z,52889.73
2022-11-14T05:18:24.308Z,52876.70
2022-11-14T05:19:27.151Z,52914.78
2022-11-14T05:20:30.335Z,52845.64
2022-11-14T05:21:33.636Z,52849.65
2022-11-14T05:22:36.600Z,52879.71
2022-11-14T05:23:39.770Z,52874.70
2022-11-14T05:24:48.396Z,52854.66
2022-11-14T05:25:54.784Z,52883.72
2022-11-14T05:26:55.979Z,52856.66
2022-11-14T05:28:02.239Z,52850.65
2022-11-14T05:29:08.493Z,52869.69
2022-11-14T05:30:11.458Z,52905.76
2022-11-14T05:31:15.266Z,52896.74
2022-11-14T05:32:19.373Z,52923.80
2022-11-14T05:33:26.023Z,52904.76
2022-11-14T05:34:29.452Z,52941.84
2022-11-14T05:35:32.802Z,52909.77
2022-11-14T05:36:45.529Z,52920.79
2022-11-14T05:37:48.595Z,52879.71
2022-11-14T05:38:51.502Z,52889.73
2022-11-14T05:39:57.713Z,52889.73
2022-11-14T05:41:00.482Z,52956.86
2022-11-14T05:42:11.790Z,52905.76
2022-11-14T05:43:15.255Z,52893.74
2022-11-14T05:44:18.772Z,52900.75
2022-11-14T05:45:21.500Z,52894.74
2022-11-14T05:46:28.781Z,52904.76
2022-11-14T05:47:37.311Z,52935.82
2022-11-14T05:48:47.234Z,52920.79
2022-11-14T05:49:50.723Z,52909.77
2022-11-14T05:50:59.539Z,52929.81
2022-11-14T05:52:04.975Z,52931.82
2022-11-14T05:53:16.666Z,52907.77
2022-11-14T05:54:21.465Z,52927.80
2022-11-14T05:56:44.847Z,52910.77
2022-11-14T05:57:49.492Z,52904.76
2022-11-14T05:58:53.236Z,52908.77
2022-11-14T05:59:56.428Z,52903.76
2022-11-14T06:01:04.211Z,52893.74
2022-11-14T06:02:08.313Z,52920.79
2022-11-14T06:03:11.956Z,52899.75
2022-11-14T06:04:15.699Z,52906.77
2022-11-14T06:05:20.035Z,52876.70
2022-11-14T06:06:23.504Z,52898.75
2022-11-14T06:07:26.750Z,52901.75
2022-11-14T06:08:35.585Z,52904.76
2022-11-14T06:09:45.103Z,52882.71
2022-11-14T06:10:59.890Z,52891.73
2022-11-14T06:12:03.910Z,52905.76
2022-11-14T06:13:06.974Z,52890.73
2022-11-14T06:14:13.489Z,52858.67
2022-11-14T06:15:17.220Z,52862.68
2022-11-14T06:16:20.805Z,52842.64
2022-11-14T06:17:23.676Z,52823.60
2022-11-14T06:18:26.862Z,52837.62
2022-11-14T06:19:35.799Z,52840.63
2022-11-14T06:20:39.010Z,52864.68
2022-11-14T06:21:41.963Z,52874.70
2022-11-14T06:22:45.119Z,52847.64
2022-11-14T06:23:48.113Z,52816.58
2022-11-14T06:24:51.176Z,52839.63
2022-11-14T06:25:54.386Z,52835.62
2022-11-14T06:26:57.767Z,52889.73
2022-11-14T06:29:22.652Z,52861.67
2022-11-14T06:30:25.731Z,52870.69
2022-11-14T06:31:28.432Z,52850.65
2022-11-14T06:32:32.008Z,52880.71
2022-11-14T06:35:03.747Z,52894.74
2022-11-14T06:36:08.276Z,52861.67
2022-11-14T06:37:11.239Z,52848.65
2022-11-14T06:38:14.626Z,52863.68
2022-11-14T06:40:44.443Z,52845.64
2022-11-14T06:43:09.848Z,52874.70
2022-11-14T06:46:54.854Z,52873.70
2022-11-14T06:47:58.091Z,52830.61
2022-11-14T06:49:01.290Z,52879.71
2022-11-14T06:50:11.417Z,52857.67
2022-11-14T06:51:14.932Z,52879.71
2022-11-14T06:52:26.218Z,52905.76
2022-11-14T06:53:38.696Z,52909.77
2022-11-14T06:54:47.008Z,52852.66
2022-11-14T06:57:10.261Z,52883.72
2022-11-14T06:58:15.384Z,52870.69
2022-11-14T06:59:20.816Z,52879.71
2022-11-14T07:00:38.856Z,52870.69
2022-11-14T07:01:42.060Z,52896.74
2022-11-14T07:02:48.386Z,52905.76
2022-11-14T07:03:52.299Z,52892.73
2022-11-14T07:04:55.773Z,52896.74
2022-11-14T07:06:01.521Z,52864.68
2022-11-14T07:07:05.050Z,52929.81
2022-11-14T07:08:24.490Z,52889.73
2022-11-14T07:09:35.538Z,52909.77
2022-11-14T07:10:38.931Z,52907.77
2022-11-14T07:11:47.136Z,52895.74
2022-11-14T07:12:50.303Z,52892.73
2022-11-14T07:13:59.233Z,52863.68
2022-11-14T07:15:16.747Z,52887.73
2022-11-14T07:16:31.290Z,52883.72
2022-11-14T07:17:34.204Z,52913.78
2022-11-14T07:19:58.254Z,52911.77
2022-11-14T07:21:13.268Z,52897.75
2022-11-14T07:22:17.945Z,52920.79
2022-11-14T07:23:22.981Z,52906.77
2022-11-14T07:24:26.781Z,52892.73
2022-11-14T07:25:30.026Z,52872.70
2022-11-14T07:26:33.311Z,52891.73
2022-11-14T07:27:36.299Z,52877.71
2022-11-14T07:28:39.311Z,52895.74
2022-11-14T07:29:44.497Z,52903.76
2022-11-14T07:30:51.280Z,52928.81
2022-11-14T07:31:54.042Z,52894.74
2022-11-14T07:32:57.418Z,52891.73
2022-11-14T07:34:05.604Z,52891.73
2022-11-14T07:35:08.490Z,52891.73
2022-11-14T07:36:15.465Z,52923.80
2022-11-14T07:37:18.954Z,52913.78
2022-11-14T07:38:22.150Z,52877.71
2022-11-14T07:39:25.622Z,52866.68
2022-11-14T07:40:28.640Z,52926.80
2022-11-14T07:41:38.984Z,52895.74
2022-11-14T07:42:42.532Z,52899.75
2022-11-14T07:47:47.490Z,52937.83
2022-11-14T07:48:50.685Z,52933.82
2022-11-14T07:49:53.983Z,52948.85
2022-11-14T07:50:56.837Z,52915.78
2022-11-14T07:51:59.812Z,52942.84
2022-11-14T07:53:03.085Z,52936.82
2022-11-14T07:54:06.996Z,52937.83
2022-11-14T07:55:10.013Z,52977.91
2022-11-14T07:56:13.570Z,52962.88
2022-11-14T07:57:16.735Z,52941.84
2022-11-14T07:58:22.073Z,52985.92
2022-11-14T07:59:40.306Z,52981.92
2022-11-14T08:00:43.358Z,52953.86
2022-11-14T08:01:49.027Z,52979.91
2022-11-14T08:02:55.503Z,52965.88
2022-11-14T08:04:00.124Z,52991.94
2022-11-14T08:05:05.732Z,52944.84
2022-11-14T08:06:08.625Z,53012.98
2022-11-14T08:07:11.955Z,52974.90
2022-11-14T08:08:16.127Z,52991.94
2022-11-14T08:09:19.308Z,52959.87
2022-11-14T08:10:22.987Z,52962.88
2022-11-14T08:11:35.119Z,52988.93
2022-11-14T08:12:32.318Z,52997.95
2022-11-14T08:13:35.185Z,52958.87
2022-11-14T08:14:41.957Z,52998.95
2022-11-14T08:15:45.252Z,52993.94
2022-11-14T08:16:48.535Z,52945.84
2022-11-14T08:17:52.219Z,52995.95
2022-11-14T08:18:55.301Z,52937.83
2022-11-14T08:19:58.170Z,52962.88
2022-11-14T08:21:01.570Z,52957.87
2022-11-14T08:22:04.445Z,52957.87
2022-11-14T08:23:07.950Z,52929.81
2022-11-14T08:24:11.007Z,52957.87
2022-11-14T08:25:21.469Z,52988.93
2022-11-14T08:26:30.112Z,52970.89
2022-11-14T08:27:30.292Z,52992.94
2022-11-14T08:28:33.955Z,52995.95
2022-11-14T08:31:00.858Z,52968.89
2022-11-14T08:32:03.981Z,52973.90
2022-11-14T08:33:07.595Z,52949.85
2022-11-14T08:34:14.350Z,52945.84
2022-11-14T08:35:21.422Z,52966.89
2022-11-14T08:37:45.602Z,52966.89
2022-11-14T08:38:51.477Z,53007.97
2022-11-14T08:39:55.479Z,52984.92
2022-11-14T08:40:59.045Z,52949.85
2022-11-14T08:42:11.899Z,52974.90
2022-11-14T08:43:18.550Z,53036.03
2022-11-14T08:44:22.315Z,52956.86
2022-11-14T08:45:28.053Z,52995.95
2022-11-14T08:46:37.664Z,52959.87
2022-11-14T08:47:46.760Z,52993.94
2022-11-14T08:48:49.585Z,53001.96
2022-11-14T08:49:55.422Z,52993.94
2022-11-14T08:51:01.404Z,53019.99
2022-11-14T08:52:06.295Z,53001.96
2022-11-14T08:53:09.585Z,53026.01
2022-11-14T08:54:12.274Z,53011.98
2022-11-14T08:55:15.225Z,53065.09
2022-11-14T08:56:19.963Z,53044.04
2022-11-14T08:57:35.517Z,53045.04
2022-11-14T08:58:41.365Z,53039.03
2022-11-14T08:59:49.681Z,53048.05
2022-11-14T09:00:53.036Z,53046.05
2022-11-14T09:01:58.391Z,53014.98
2022-11-14T09:03:05.148Z,53038.03
2022-11-14T09:05:35.744Z,53046.05
2022-11-14T09:06:41.118Z,53028.01
2022-11-14T09:07:44.192Z,53058.07
2022-11-14T09:10:07.661Z,53098.15
2022-11-14T09:11:19.493Z,53083.13
2022-11-14T09:12:22.881Z,53076.11
2022-11-14T09:13:25.807Z,53056.07
2022-11-14T09:14:32.459Z,53054.06
2022-11-14T09:15:35.244Z,53066.09
2022-11-14T09:16:42.301Z,53069.09
2022-11-14T09:17:46.112Z,53091.14
2022-11-14T09:18:49.101Z,53042.04
2022-11-14T09:19:54.469Z,53065.09
2022-11-14T09:20:57.652Z,53059.07
2022-11-14T09:22:02.617Z,53053.06
2022-11-14T09:23:12.770Z,53065.09
2022-11-14T09:24:15.535Z,53078.11
2022-11-14T09:25:18.411Z,53043.04
2022-11-14T09:26:21.205Z,53051.06
2022-11-14T09:27:24.159Z,53038.03
2022-11-14T09:28:27.149Z,53065.09
2022-11-14T09:29:37.663Z,53088.13
2022-11-14T09:30:46.421Z,53066.09
2022-11-14T09:31:50.109Z,53053.06
2022-11-14T09:32:54.327Z,53070.10
2022-11-14T09:33:58.015Z,53034.02
2022-11-14T09:35:00.981Z,53056.07
2022-11-14T09:36:04.163Z,53073.10
2022-11-14T09:37:10.110Z,53090.14
2022-11-14T09:38:12.894Z,53066.09
2022-11-14T09:39:16.365Z,53036.03
2022-11-14T09:40:22.421Z,53077.11
2022-11-14T09:41:25.700Z,53060.07
2022-11-14T09:42:31.234Z,53046.05
2022-11-14T09:47:35.885Z,53038.03
2022-11-14T09:48:39.064Z,53048.05
2022-11-14T09:49:44.918Z,53089.14
2022-11-14T09:50:49.135Z,53082.12
2022-11-14T09:51:52.208Z,53095.15
2022-11-14T09:52:58.558Z,53110.18
2022-11-14T09:54:03.967Z,53088.13
2022-11-14T09:55:07.287Z,53086.13
2022-11-14T09:56:21.276Z,53110.18
2022-11-14T09:57:28.927Z,53114.19
2022-11-14T10:00:06.902Z,53112.18
2022-11-14T10:01:12.764Z,53112.18
2022-11-14T10:02:28.718Z,53133.23
2022-11-14T10:03:32.994Z,53129.22
2022-11-14T10:04:43.073Z,53160.28
2022-11-14T10:05:48.949Z,53171.30
2022-11-14T10:06:51.569Z,53202.37
2022-11-14T10:07:55.814Z,53170.30
2022-11-14T10:08:59.704Z,53190.34
2022-11-14T10:10:05.714Z,53181.32
2022-11-14T10:11:11.810Z,53179.32
2022-11-14T10:12:16.949Z,53212.39
2022-11-14T10:47:01.043Z,53541.09
2022-11-14T10:52:17.353Z,53402.79
2022-11-14T10:54:43.126Z,53361.71
2022-11-14T10:56:09.733Z,53386.76
2022-11-14T11:44:35.543Z,53397.78
2022-11-14T11:51:00.698Z,53440.88
2022-11-14T11:52:20.310Z,53416.82
2022-11-14T12:00:13.652Z,53404.80
2022-11-14T12:16:26.886Z,53467.93
2022-11-14T12:20:13.283Z,53523.05
2022-11-14T12:22:36.295Z,53554.12
2022-11-14T12:25:00.123Z,53565.14
2022-11-14T12:31:24.510Z,53561.14
2022-11-14T12:35:07.971Z,53677.39
2022-11-14T12:36:10.306Z,53621.27
2022-11-14T12:37:12.630Z,53642.31
2022-11-14T12:38:14.988Z,53620.27
2022-11-14T12:39:19.473Z,53663.36
2022-11-14T12:40:26.244Z,53706.45
2022-11-14T12:41:28.783Z,53697.43
2022-11-14T12:42:38.320Z,53707.46
2022-11-14T12:43:40.722Z,53722.49
2022-11-14T12:44:50.468Z,53696.43
2022-11-14T12:48:34.757Z,53831.73
2022-11-14T12:52:18.222Z,53808.68
2022-11-14T12:53:20.553Z,53804.67
2022-11-14T12:55:43.449Z,53822.71
2022-11-14T12:56:53.815Z,53796.65
2022-11-14T12:57:54.397Z,53840.75
2022-11-14T13:00:21.383Z,53845.77
2022-11-14T13:01:23.721Z,53845.77
2022-11-14T13:02:26.078Z,53871.82
2022-11-14T13:03:36.634Z,53877.84
2022-11-14T13:04:38.929Z,53958.02
2022-11-14T13:08:23.505Z,54095.33
2022-11-14T13:10:50.236Z,54210.60
2022-11-14T13:11:57.551Z,54177.52
2022-11-14T13:13:05.800Z,54179.53
2022-11-14T13:14:12.676Z,54222.63
2022-11-14T13:15:14.916Z,54236.66
2022-11-14T13:16:26.718Z,54348.93
2022-11-14T13:17:29.392Z,54360.96
2022-11-14T13:18:38.139Z,54340.91
2022-11-14T13:22:21.582Z,54499.29
2022-11-14T13:28:46.845Z,54516.33
2022-11-14T13:29:59.743Z,54524.35
2022-11-14T13:31:06.863Z,54551.41
2022-11-14T13:32:17.291Z,54660.68
2022-11-14T13:34:50.950Z,54695.77
2022-11-14T13:35:53.737Z,54740.88
2022-11-14T13:41:21.426Z,54914.31
2022-11-14T13:43:45.436Z,54992.51
2022-11-14T13:46:11.265Z,55052.66
2022-11-14T13:47:18.684Z,55168.96
2022-11-14T13:49:42.265Z,55287.27
2022-11-14T13:50:53.720Z,55338.40
2022-11-14T13:52:04.958Z,55372.49
2022-11-14T13:53:07.394Z,55443.68
2022-11-14T13:54:18.674Z,55533.92
2022-11-14T13:55:30.006Z,55491.81
2022-11-14T13:56:50.437Z,55640.20
2022-11-14T13:57:58.237Z,55603.11
2022-11-14T13:59:00.611Z,55656.25
2022-11-14T14:00:16.766Z,55724.43
2022-11-14T14:01:19.498Z,55774.57
2022-11-14T14:02:25.495Z,55771.56
2022-11-14T14:03:31.866Z,55795.63
2022-11-14T14:04:34.568Z,55776.58
2022-11-14T14:05:37.273Z,55835.74
2022-11-14T14:08:00.190Z,55838.75
2022-11-14T14:09:02.535Z,55843.76
2022-11-14T14:10:06.057Z,55854.79
2022-11-14T14:11:08.310Z,55864.82
2022-11-14T14:12:11.828Z,55828.72
2022-11-14T14:13:14.165Z,55849.78
2022-11-14T14:15:36.798Z,55840.75
2022-11-14T14:16:55.786Z,55857.80
2022-11-14T14:17:58.268Z,55889.89
2022-11-14T14:19:03.836Z,55961.09
2022-11-14T14:20:10.864Z,56043.31
2022-11-14T14:22:36.255Z,56171.68
2022-11-14T14:23:43.570Z,56157.64
2022-11-14T14:24:45.947Z,56207.78
2022-11-14T14:27:24.011Z,56163.65
2022-11-14T14:29:46.840Z,56164.66
2022-11-14T14:30:53.957Z,56209.79
2022-11-14T14:32:14.916Z,56252.91
2022-11-14T14:33:26.880Z,56262.94
2022-11-14T14:35:53.968Z,56299.04
2022-11-14T14:36:56.233Z,56368.24
2022-11-14T14:38:01.138Z,56392.31
2022-11-14T14:39:12.177Z,56479.56
2022-11-14T14:41:39.106Z,56448.47
2022-11-14T14:42:41.392Z,56462.51
2022-11-14T14:45:03.994Z,56403.34
2022-11-14T14:47:28.181Z,56255.92
2022-11-14T14:48:34.209Z,56234.86
2022-11-14T14:49:37.832Z,56160.64
2022-11-14T14:52:08.060Z,56083.43
2022-11-14T14:53:18.948Z,56150.62
2022-11-14T14:55:44.200Z,56149.61
2022-11-14T14:58:09.467Z,56148.61
2022-11-14T14:59:11.897Z,56117.52
2022-11-14T15:00:21.643Z,56071.39
2022-11-14T15:02:53.326Z,55967.10
2022-11-14T15:03:58.310Z,55975.12
2022-11-14T15:05:00.980Z,55994.18
2022-11-14T15:07:35.490Z,55989.16
2022-11-14T15:08:37.982Z,55924.98
2022-11-14T15:09:40.433Z,55912.95
2022-11-14T15:10:55.955Z,55893.90
2022-11-14T15:11:58.567Z,55919.97
2022-11-14T15:13:06.366Z,55877.86
2022-11-14T15:14:10.876Z,55869.83
2022-11-14T15:15:13.433Z,55839.75
2022-11-14T15:16:16.964Z,55811.67
2022-11-14T15:17:20.462Z,55832.73
2022-11-14T15:18:40.408Z,55838.75
2022-11-14T15:21:01.170Z,55782.59
2022-11-14T15:22:20.413Z,55731.45
2022-11-14T15:25:01.151Z,55730.45
2022-11-14T15:26:08.228Z,55802.65
2022-11-14T15:27:16.654Z,55812.68
2022-11-14T15:28:19.148Z,55831.73
2022-11-14T15:29:21.754Z,55842.76
2022-11-14T15:30:24.280Z,55830.72
2022-11-14T15:31:34.136Z,55832.73
2022-11-14T15:32:40.521Z,55853.79
2022-11-14T15:33:43.080Z,55843.76
2022-11-14T15:34:55.426Z,55862.81
2022-11-14T15:35:58.008Z,55852.79
2022-11-14T15:37:02.226Z,55832.73
2022-11-14T15:38:37.033Z,55804.65
2022-11-14T15:39:10.135Z,55810.67
2022-11-14T15:40:12.487Z,55784.60
2022-11-14T15:41:21.297Z,55813.68
2022-11-14T15:42:27.251Z,55854.79
2022-11-14T15:43:47.069Z,55861.81
2022-11-14T15:44:50.832Z,55941.03
2022-11-14T15:45:55.064Z,55890.89
2022-11-14T15:46:57.701Z,55871.84
2022-11-14T15:48:00.108Z,55871.84
2022-11-14T15:49:02.405Z,55920.97
2022-11-14T15:51:38.057Z,55976.13
2022-11-14T15:52:40.398Z,55997.18
2022-11-14T15:53:49.105Z,55952.06
2022-11-14T15:54:50.967Z,55953.06
2022-11-14T15:56:00.633Z,55955.07
2022-11-14T15:57:07.723Z,55924.98
2022-11-14T15:59:31.010Z,55844.76
2022-11-14T16:00:50.280Z,55868.83
2022-11-14T16:01:56.595Z,55897.91
2022-11-14T16:02:58.860Z,55898.91
2022-11-14T16:04:10.633Z,55891.89
2022-11-14T16:05:12.911Z,55943.04
2022-11-14T16:06:16.254Z,55954.07
2022-11-14T16:07:18.910Z,55959.08
2022-11-14T16:08:30.684Z,55952.06
2022-11-14T16:11:01.301Z,55908.94
2022-11-14T16:12:03.890Z,55961.09
2022-11-14T16:13:15.288Z,55953.06
2022-11-14T16:14:36.322Z,55960.08
2022-11-14T16:15:38.526Z,55949.05
2022-11-14T16:16:41.771Z,55949.05